sensor_id;sensor_type;location;lat;lon;timestamp;pressure;altitude;pressure_sealevel;temperature;humidity
6345;BME280;3205;42.666;23.264;2023-06-10T00:00:12;93935.38;;;19.18;100.00
6345;BME280;3205;42.666;23.264;2023-06-10T00:02:41;93941.06;;;19.24;100.00
6345;BME280;3205;42.666;23.264;2023-06-10T00:05:08;93947.94;;;19.25;100.00
6345;BME280;3205;42.666;23.264;2023-06-10T00:07:35;93940.44;;;19.09;100.00
6345;BME280;3205;42.666;23.264;2023-06-10T00:10:03;93950.03;;;19.03;100.00
6345;BME280;3205;42.666;23.264;2023-06-10T00:12:30;93948.16;;;18.97;100.00
6345;BME280;3205;42.666;23.264;2023-06-10T00:15:03;93948.53;;;18.99;100.00
6345;BME280;3205;42.666;23.264;2023-06-10T00:17:29;93953.16;;;18.95;100.00
6345;BME280;3205;42.666;23.264;2023-06-10T00:19:56;93952.38;;;18.94;100.00
6345;BME280;3205;42.666;23.264;2023-06-10T00:22:23;93952.34;;;18.98;100.00
6345;BME280;3205;42.666;23.264;2023-06-10T00:24:49;93958.50;;;18.98;100.00
6345;BME280;3205;42.666;23.264;2023-06-10T00:27:16;93953.91;;;18.95;100.00
6345;BME280;3205;42.666;23.264;2023-06-10T00:29:42;93955.09;;;18.91;100.00
6345;BME280;3205;42.666;23.264;2023-06-10T00:32:09;93946.63;;;18.96;100.00
6345;BME280;3205;42.666;23.264;2023-06-10T00:34:35;93950.59;;;18.81;100.00
6345;BME280;3205;42.666;23.264;2023-06-10T00:37:02;93945.97;;;18.81;100.00
6345;BME280;3205;42.666;23.264;2023-06-10T00:39:28;93947.13;;;18.80;100.00
6345;BME280;3205;42.666;23.264;2023-06-10T00:41:54;93950.22;;;18.79;100.00
6345;BME280;3205;42.666;23.264;2023-06-10T00:44:20;93948.25;;;18.83;100.00
6345;BME280;3205;42.666;23.264;2023-06-10T00:46:46;93945.97;;;18.81;100.00
6345;BME280;3205;42.666;23.264;2023-06-10T00:49:13;93939.41;;;18.93;100.00
6345;BME280;3205;42.666;23.264;2023-06-10T00:51:39;93942.50;;;18.88;100.00
6345;BME280;3205;42.666;23.264;2023-06-10T00:54:07;93935.63;;;18.87;100.00
6345;BME280;3205;42.666;23.264;2023-06-10T00:56:35;93948.19;;;18.93;100.00
6345;BME280;3205;42.666;23.264;2023-06-10T00:59:02;93940.91;;;18.94;100.00
6345;BME280;3205;42.666;23.264;2023-06-10T01:01:28;93941.66;;;18.98;100.00
6345;BME280;3205;42.666;23.264;2023-06-10T01:03:56;93952.28;;;19.08;100.00
6345;BME280;3205;42.666;23.264;2023-06-10T01:06:31;93951.59;;;18.97;100.00
6345;BME280;3205;42.666;23.264;2023-06-10T01:09:10;93949.72;;;18.94;100.00
6345;BME280;3205;42.666;23.264;2023-06-10T01:11:43;93956.63;;;18.88;100.00
6345;BME280;3205;42.666;23.264;2023-06-10T01:14:12;93947.50;;;18.82;100.00
6345;BME280;3205;42.666;23.264;2023-06-10T01:16:39;93950.59;;;18.81;100.00
6345;BME280;3205;42.666;23.264;2023-06-10T01:19:06;93954.75;;;18.82;100.00
6345;BME280;3205;42.666;23.264;2023-06-10T01:21:33;93960.53;;;18.80;100.00
6345;BME280;3205;42.666;23.264;2023-06-10T01:24:01;93959.28;;;18.92;100.00
6345;BME280;3205;42.666;23.264;2023-06-10T01:26:30;93960.06;;;18.89;100.00
6345;BME280;3205;42.666;23.264;2023-06-10T01:29:00;93949.75;;;18.87;100.00
6345;BME280;3205;42.666;23.264;2023-06-10T01:31:36;93953.22;;;18.88;100.00
6345;BME280;3205;42.666;23.264;2023-06-10T01:34:08;93954.34;;;18.90;100.00
6345;BME280;3205;42.666;23.264;2023-06-10T01:36:37;93954.72;;;18.89;100.00
6345;BME280;3205;42.666;23.264;2023-06-10T01:39:04;93960.41;;;18.98;100.00
6345;BME280;3205;42.666;23.264;2023-06-10T01:41:31;93949.25;;;19.03;100.00
6345;BME280;3205;42.666;23.264;2023-06-10T01:43:58;93944.69;;;19.00;100.00
6345;BME280;3205;42.666;23.264;2023-06-10T01:46:24;93951.94;;;18.99;100.00
6345;BME280;3205;42.666;23.264;2023-06-10T01:48:50;93957.69;;;19.01;100.00
6345;BME280;3205;42.666;23.264;2023-06-10T01:51:17;93946.97;;;19.01;100.00
6345;BME280;3205;42.666;23.264;2023-06-10T01:53:43;93949.66;;;19.01;100.00
6345;BME280;3205;42.666;23.264;2023-06-10T01:56:09;93946.56;;;19.03;100.00
6345;BME280;3205;42.666;23.264;2023-06-10T01:58:42;93943.13;;;19.09;100.00
6345;BME280;3205;42.666;23.264;2023-06-10T02:01:08;93935.81;;;19.10;100.00
6345;BME280;3205;42.666;23.264;2023-06-10T02:03:34;93937.00;;;19.09;100.00
6345;BME280;3205;42.666;23.264;2023-06-10T02:06:00;93934.31;;;19.05;100.00
6345;BME280;3205;42.666;23.264;2023-06-10T02:08:26;93928.16;;;19.08;100.00
6345;BME280;3205;42.666;23.264;2023-06-10T02:10:54;93925.50;;;19.05;100.00
6345;BME280;3205;42.666;23.264;2023-06-10T02:13:20;93931.66;;;19.05;100.00
6345;BME280;3205;42.666;23.264;2023-06-10T02:15:46;93922.44;;;19.06;100.00
6345;BME280;3205;42.666;23.264;2023-06-10T02:18:12;93921.28;;;19.11;100.00
6345;BME280;3205;42.666;23.264;2023-06-10T02:20:39;93919.41;;;19.04;100.00
6345;BME280;3205;42.666;23.264;2023-06-10T02:23:05;93916.75;;;19.01;100.00
6345;BME280;3205;42.666;23.264;2023-06-10T02:25:31;93916.34;;;19.02;100.00
6345;BME280;3205;42.666;23.264;2023-06-10T02:27:58;93914.41;;;19.03;100.00
6345;BME280;3205;42.666;23.264;2023-06-10T02:30:24;93913.31;;;19.00;100.00
6345;BME280;3205;42.666;23.264;2023-06-10T02:32:50;93908.41;;;18.92;100.00
6345;BME280;3205;42.666;23.264;2023-06-10T02:35:18;93906.88;;;18.91;100.00
6345;BME280;3205;42.666;23.264;2023-06-10T02:37:44;93908.44;;;18.88;100.00
6345;BME280;3205;42.666;23.264;2023-06-10T02:40:11;93908.38;;;18.95;100.00
6345;BME280;3205;42.666;23.264;2023-06-10T02:42:38;93910.25;;;19.02;100.00
6345;BME280;3205;42.666;23.264;2023-06-10T02:45:06;93904.03;;;19.08;100.00
6345;BME280;3205;42.666;23.264;2023-06-10T02:47:32;93905.19;;;19.07;100.00
6345;BME280;3205;42.666;23.264;2023-06-10T02:49:58;93905.16;;;19.14;100.00
6345;BME280;3205;42.666;23.264;2023-06-10T02:52:25;93899.06;;;19.14;100.00
6345;BME280;3205;42.666;23.264;2023-06-10T02:54:51;93899.38;;;19.19;100.00
6345;BME280;3205;42.666;23.264;2023-06-10T02:57:17;93898.22;;;19.20;100.00
6345;BME280;3205;42.666;23.264;2023-06-10T02:59:43;93899.00;;;19.21;100.00
6345;BME280;3205;42.666;23.264;2023-06-10T03:02:10;93898.59;;;19.22;100.00
6345;BME280;3205;42.666;23.264;2023-06-10T03:04:37;93897.41;;;19.60;100.00
6345;BME280;3205;42.666;23.264;2023-06-10T03:07:04;93900.06;;;19.30;100.00
6345;BME280;3205;42.666;23.264;2023-06-10T03:09:32;93894.75;;;19.23;100.00
6345;BME280;3205;42.666;23.264;2023-06-10T03:11:58;93911.19;;;19.29;100.00
6345;BME280;3205;42.666;23.264;2023-06-10T03:14:26;93904.56;;;19.73;100.00
6345;BME280;3205;42.666;23.264;2023-06-10T03:16:52;93910.91;;;19.86;100.00
6345;BME280;3205;42.666;23.264;2023-06-10T03:19:19;93915.13;;;19.87;100.00
6345;BME280;3205;42.666;23.264;2023-06-10T03:21:49;93916.28;;;19.86;100.00
6345;BME280;3205;42.666;23.264;2023-06-10T03:24:15;93922.00;;;19.88;100.00
6345;BME280;3205;42.666;23.264;2023-06-10T03:26:42;93934.09;;;19.70;100.00
6345;BME280;3205;42.666;23.264;2023-06-10T03:29:08;93941.16;;;19.53;100.00
6345;BME280;3205;42.666;23.264;2023-06-10T03:31:34;93938.84;;;19.55;100.00
6345;BME280;3205;42.666;23.264;2023-06-10T03:34:02;93944.94;;;19.59;100.00
6345;BME280;3205;42.666;23.264;2023-06-10T03:36:28;93935.47;;;19.04;100.00
6345;BME280;3205;42.666;23.264;2023-06-10T03:38:55;93934.81;;;18.90;100.00
6345;BME280;3205;42.666;23.264;2023-06-10T03:41:22;93924.84;;;18.94;100.00
6345;BME280;3205;42.666;23.264;2023-06-10T03:43:48;93924.84;;;18.94;100.00
6345;BME280;3205;42.666;23.264;2023-06-10T03:46:14;93925.97;;;18.96;100.00
6345;BME280;3205;42.666;23.264;2023-06-10T03:48:40;93920.97;;;19.02;100.00
6345;BME280;3205;42.666;23.264;2023-06-10T03:51:06;93920.06;;;19.19;100.00
6345;BME280;3205;42.666;23.264;2023-06-10T03:53:33;93920.28;;;19.38;100.00
6345;BME280;3205;42.666;23.264;2023-06-10T03:55:59;93922.25;;;19.31;100.00
6345;BME280;3205;42.666;23.264;2023-06-10T03:58:26;93926.09;;;19.26;100.00
6345;BME280;3205;42.666;23.264;2023-06-10T04:00:53;93917.75;;;19.21;100.00
6345;BME280;3205;42.666;23.264;2023-06-10T04:03:19;93917.31;;;19.26;100.00
6345;BME280;3205;42.666;23.264;2023-06-10T04:05:46;93918.13;;;19.19;100.00
6345;BME280;3205;42.666;23.264;2023-06-10T04:08:12;93922.38;;;19.17;100.00
6345;BME280;3205;42.666;23.264;2023-06-10T04:10:40;93921.69;;;19.06;100.00
6345;BME280;3205;42.666;23.264;2023-06-10T04:13:07;93920.91;;;19.49;100.00
6345;BME280;3205;42.666;23.264;2023-06-10T04:15:35;93927.72;;;19.17;100.00
6345;BME280;3205;42.666;23.264;2023-06-10T04:18:01;93926.13;;;19.23;100.00
6345;BME280;3205;42.666;23.264;2023-06-10T04:20:28;93927.25;;;19.29;100.00
6345;BME280;3205;42.666;23.264;2023-06-10T04:22:54;93936.63;;;19.47;100.00
6345;BME280;3205;42.666;23.264;2023-06-10T04:25:20;93940.94;;;19.38;100.00
6345;BME280;3205;42.666;23.264;2023-06-10T04:27:47;93935.63;;;19.31;100.00
6345;BME280;3205;42.666;23.264;2023-06-10T04:30:14;93929.41;;;19.44;100.00
6345;BME280;3205;42.666;23.264;2023-06-10T04:32:40;93936.53;;;19.57;100.00
6345;BME280;3205;42.666;23.264;2023-06-10T04:35:08;93931.25;;;19.47;100.00
6345;BME280;3205;42.666;23.264;2023-06-10T04:37:34;93943.16;;;19.46;100.00
6345;BME280;3205;42.666;23.264;2023-06-10T04:40:00;93940.16;;;19.74;100.00
6345;BME280;3205;42.666;23.264;2023-06-10T04:42:28;93940.38;;;19.90;100.00
6345;BME280;3205;42.666;23.264;2023-06-10T04:45:14;93937.94;;;20.06;100.00
6345;BME280;3205;42.666;23.264;2023-06-10T04:47:40;93946.81;;;19.99;100.00
6345;BME280;3205;42.666;23.264;2023-06-10T04:50:07;93936.19;;;20.22;100.00
6345;BME280;3205;42.666;23.264;2023-06-10T04:52:33;93946.59;;;20.46;100.00
6345;BME280;3205;42.666;23.264;2023-06-10T04:54:59;93954.56;;;20.53;100.00
6345;BME280;3205;42.666;23.264;2023-06-10T04:57:25;93955.91;;;20.68;100.00
6345;BME280;3205;42.666;23.264;2023-06-10T04:59:52;93950.53;;;20.68;100.00
6345;BME280;3205;42.666;23.264;2023-06-10T05:02:19;93951.22;;;20.72;100.00
6345;BME280;3205;42.666;23.264;2023-06-10T05:04:45;93946.59;;;20.73;100.00
6345;BME280;3205;42.666;23.264;2023-06-10T05:07:12;93951.22;;;20.72;100.00
6345;BME280;3205;42.666;23.264;2023-06-10T05:09:38;93950.09;;;20.70;100.00
6345;BME280;3205;42.666;23.264;2023-06-10T05:12:05;93955.00;;;20.78;100.00
6345;BME280;3205;42.666;23.264;2023-06-10T05:14:31;93958.13;;;20.73;100.00
6345;BME280;3205;42.666;23.264;2023-06-10T05:16:58;93958.09;;;20.77;100.00
6345;BME280;3205;42.666;23.264;2023-06-10T05:19:24;93959.06;;;20.90;100.00
6345;BME280;3205;42.666;23.264;2023-06-10T05:21:51;93963.91;;;20.98;100.00
6345;BME280;3205;42.666;23.264;2023-06-10T05:24:17;93963.97;;;21.40;100.00
6345;BME280;3205;42.666;23.264;2023-06-10T05:26:43;93974.56;;;21.51;100.00
6345;BME280;3205;42.666;23.264;2023-06-10T05:29:09;93976.72;;;21.63;100.00
6345;BME280;3205;42.666;23.264;2023-06-10T05:31:35;93977.03;;;21.65;100.00
6345;BME280;3205;42.666;23.264;2023-06-10T05:34:02;93981.13;;;21.72;100.00
6345;BME280;3205;42.666;23.264;2023-06-10T05:36:29;93980.38;;;21.91;100.00
6345;BME280;3205;42.666;23.264;2023-06-10T05:38:55;93979.03;;;22.03;100.00
6345;BME280;3205;42.666;23.264;2023-06-10T05:41:21;93983.50;;;22.29;100.00
6345;BME280;3205;42.666;23.264;2023-06-10T05:43:47;93987.59;;;22.56;100.00
6345;BME280;3205;42.666;23.264;2023-06-10T05:46:14;93994.78;;;22.98;100.00
6345;BME280;3205;42.666;23.264;2023-06-10T05:48:40;93997.00;;;23.34;100.00
6345;BME280;3205;42.666;23.264;2023-06-10T05:51:07;94007.72;;;23.54;100.00
6345;BME280;3205;42.666;23.264;2023-06-10T05:53:34;94003.50;;;23.69;100.00
6345;BME280;3205;42.666;23.264;2023-06-10T05:56:00;94007.22;;;23.75;100.00
6345;BME280;3205;42.666;23.264;2023-06-10T05:58:26;94021.00;;;23.80;100.00
6345;BME280;3205;42.666;23.264;2023-06-10T06:00:53;94028.78;;;23.91;100.00
6345;BME280;3205;42.666;23.264;2023-06-10T06:03:19;94016.91;;;23.88;100.00
6345;BME280;3205;42.666;23.264;2023-06-10T06:05:45;94032.66;;;24.05;100.00
6345;BME280;3205;42.666;23.264;2023-06-10T06:08:11;94031.09;;;24.20;100.00
6345;BME280;3205;42.666;23.264;2023-06-10T06:10:39;94025.94;;;24.26;100.00
6345;BME280;3205;42.666;23.264;2023-06-10T06:13:05;94032.97;;;24.23;100.00
6345;BME280;3205;42.666;23.264;2023-06-10T06:15:31;94029.09;;;24.24;100.00
6345;BME280;3205;42.666;23.264;2023-06-10T06:17:57;94029.66;;;24.32;100.00
6345;BME280;3205;42.666;23.264;2023-06-10T06:20:23;94035.91;;;24.57;100.00
6345;BME280;3205;42.666;23.264;2023-06-10T06:22:50;94029.28;;;24.01;100.00
6345;BME280;3205;42.666;23.264;2023-06-10T06:25:16;94029.66;;;23.88;100.00
6345;BME280;3205;42.666;23.264;2023-06-10T06:27:42;94043.81;;;23.92;100.00
6345;BME280;3205;42.666;23.264;2023-06-10T06:30:09;94041.97;;;24.33;100.00
6345;BME280;3205;42.666;23.264;2023-06-10T06:32:35;94037.31;;;24.05;100.00
6345;BME280;3205;42.666;23.264;2023-06-10T06:35:03;94048.28;;;23.82;100.00
6345;BME280;3205;42.666;23.264;2023-06-10T06:37:31;94044.91;;;23.94;100.00
6345;BME280;3205;42.666;23.264;2023-06-10T06:39:57;94041.72;;;24.43;100.00
6345;BME280;3205;42.666;23.264;2023-06-10T06:42:24;94047.13;;;24.43;100.00
6345;BME280;3205;42.666;23.264;2023-06-10T06:44:51;94049.63;;;24.50;100.00
6345;BME280;3205;42.666;23.264;2023-06-10T06:47:17;94045.84;;;24.48;100.00
6345;BME280;3205;42.666;23.264;2023-06-10T06:49:45;94045.06;;;24.47;100.00
6345;BME280;3205;42.666;23.264;2023-06-10T06:52:12;94035.75;;;24.89;100.00
6345;BME280;3205;42.666;23.264;2023-06-10T06:54:38;94038.28;;;25.58;100.00
6345;BME280;3205;42.666;23.264;2023-06-10T06:57:04;94042.69;;;26.02;100.00
6345;BME280;3205;42.666;23.264;2023-06-10T06:59:31;94034.22;;;26.33;100.00
6345;BME280;3205;42.666;23.264;2023-06-10T07:01:58;94036.22;;;25.99;100.00
6345;BME280;3205;42.666;23.264;2023-06-10T07:04:24;94035.78;;;26.56;100.00
6345;BME280;3205;42.666;23.264;2023-06-10T07:06:50;94030.59;;;27.52;100.00
6345;BME280;3205;42.666;23.264;2023-06-10T07:09:16;94029.91;;;28.36;100.00
6345;BME280;3205;42.666;23.264;2023-06-10T07:11:42;94036.09;;;28.36;100.00
6345;BME280;3205;42.666;23.264;2023-06-10T07:14:08;94024.25;;;27.94;100.00
6345;BME280;3205;42.666;23.264;2023-06-10T07:16:34;94027.75;;;28.13;100.00
6345;BME280;3205;42.666;23.264;2023-06-10T07:19:01;94026.88;;;28.34;100.00
6345;BME280;3205;42.666;23.264;2023-06-10T07:21:27;94027.03;;;28.66;100.00
6345;BME280;3205;42.666;23.264;2023-06-10T07:23:54;94023.72;;;28.53;100.00
6345;BME280;3205;42.666;23.264;2023-06-10T07:26:22;94013.91;;;28.38;100.00
6345;BME280;3205;42.666;23.264;2023-06-10T07:28:48;94017.50;;;28.79;100.00
6345;BME280;3205;42.666;23.264;2023-06-10T07:31:14;94021.97;;;29.18;100.00
6345;BME280;3205;42.666;23.264;2023-06-10T07:33:40;94015.03;;;29.08;100.00
6345;BME280;3205;42.666;23.264;2023-06-10T07:36:07;94021.16;;;29.68;100.00
6345;BME280;3205;42.666;23.264;2023-06-10T07:38:34;94026.91;;;30.25;100.00
6345;BME280;3205;42.666;23.264;2023-06-10T07:41:00;94028.06;;;29.87;100.00
6345;BME280;3205;42.666;23.264;2023-06-10T07:43:26;94022.63;;;29.54;100.00
6345;BME280;3205;42.666;23.264;2023-06-10T07:45:52;94022.31;;;29.02;100.00
6345;BME280;3205;42.666;23.264;2023-06-10T07:48:19;94030.56;;;29.35;100.00
6345;BME280;3205;42.666;23.264;2023-06-10T07:50:45;94020.91;;;29.16;100.00
6345;BME280;3205;42.666;23.264;2023-06-10T07:53:12;94023.84;;;30.32;97.53
6345;BME280;3205;42.666;23.264;2023-06-10T07:55:38;94022.25;;;30.40;94.64
6345;BME280;3205;42.666;23.264;2023-06-10T07:58:07;94032.09;;;31.57;85.03
6345;BME280;3205;42.666;23.264;2023-06-10T08:00:33;94038.75;;;31.70;75.88
6345;BME280;3205;42.666;23.264;2023-06-10T08:02:59;94028.59;;;33.10;62.58
6345;BME280;3205;42.666;23.264;2023-06-10T08:05:25;94029.59;;;36.14;50.29
6345;BME280;3205;42.666;23.264;2023-06-10T08:07:52;94029.44;;;38.61;43.02
6345;BME280;3205;42.666;23.264;2023-06-10T08:10:19;94025.50;;;39.48;39.77
6345;BME280;3205;42.666;23.264;2023-06-10T08:12:45;94032.41;;;40.17;36.61
6345;BME280;3205;42.666;23.264;2023-06-10T08:15:11;94027.53;;;40.62;35.73
6345;BME280;3205;42.666;23.264;2023-06-10T08:17:37;94022.69;;;40.11;36.11
6345;BME280;3205;42.666;23.264;2023-06-10T08:20:04;94019.75;;;39.77;35.63
6345;BME280;3205;42.666;23.264;2023-06-10T08:22:31;94024.31;;;39.75;33.28
6345;BME280;3205;42.666;23.264;2023-06-10T08:24:57;94017.47;;;38.29;34.18
6345;BME280;3205;42.666;23.264;2023-06-10T08:27:24;94005.97;;;37.72;34.93
6345;BME280;3205;42.666;23.264;2023-06-10T08:29:50;94007.13;;;38.77;31.60
6345;BME280;3205;42.666;23.264;2023-06-10T08:32:16;94017.63;;;39.83;33.63
6345;BME280;3205;42.666;23.264;2023-06-10T08:34:43;94008.34;;;41.36;29.64
6345;BME280;3205;42.666;23.264;2023-06-10T08:37:09;94010.59;;;40.65;31.17
6345;BME280;3205;42.666;23.264;2023-06-10T08:39:35;93993.56;;;41.07;30.73
6345;BME280;3205;42.666;23.264;2023-06-10T08:42:08;94006.75;;;40.68;30.38
6345;BME280;3205;42.666;23.264;2023-06-10T08:44:37;94018.03;;;40.96;30.33
6345;BME280;3205;42.666;23.264;2023-06-10T08:47:08;94001.53;;;41.57;29.79
6345;BME280;3205;42.666;23.264;2023-06-10T08:49:40;93997.31;;;42.60;28.92
6345;BME280;3205;42.666;23.264;2023-06-10T08:52:07;93999.19;;;43.43;28.96
6345;BME280;3205;42.666;23.264;2023-06-10T08:54:36;93997.00;;;43.49;27.88
6345;BME280;3205;42.666;23.264;2023-06-10T08:57:05;93996.31;;;44.30;27.11
6345;BME280;3205;42.666;23.264;2023-06-10T08:59:31;93997.38;;;43.75;26.31
6345;BME280;3205;42.666;23.264;2023-06-10T09:01:59;93986.53;;;42.49;26.81
6345;BME280;3205;42.666;23.264;2023-06-10T09:04:26;93984.59;;;39.85;29.05
6345;BME280;3205;42.666;23.264;2023-06-10T09:06:53;93984.16;;;40.13;29.47
6345;BME280;3205;42.666;23.264;2023-06-10T09:09:20;93984.19;;;39.81;30.10
6345;BME280;3205;42.666;23.264;2023-06-10T09:11:46;93982.44;;;40.23;29.67
6345;BME280;3205;42.666;23.264;2023-06-10T09:14:12;93981.84;;;39.85;29.31
6345;BME280;3205;42.666;23.264;2023-06-10T09:16:38;93977.91;;;40.38;29.42
6345;BME280;3205;42.666;23.264;2023-06-10T09:19:06;93974.22;;;40.82;29.12
6345;BME280;3205;42.666;23.264;2023-06-10T09:21:33;93979.75;;;39.47;30.58
6345;BME280;3205;42.666;23.264;2023-06-10T09:23:59;93971.91;;;39.33;31.49
6345;BME280;3205;42.666;23.264;2023-06-10T09:26:28;93975.78;;;39.74;31.13
6345;BME280;3205;42.666;23.264;2023-06-10T09:29:02;93965.16;;;40.04;30.75
6345;BME280;3205;42.666;23.264;2023-06-10T09:31:28;93966.19;;;38.94;30.62
6345;BME280;3205;42.666;23.264;2023-06-10T09:34:05;93960.09;;;38.40;31.54
6345;BME280;3205;42.666;23.264;2023-06-10T09:36:32;93958.00;;;39.01;30.46
6345;BME280;3205;42.666;23.264;2023-06-10T09:38:58;93966.81;;;36.69;31.96
6345;BME280;3205;42.666;23.264;2023-06-10T09:41:32;93962.06;;;36.64;32.95
6345;BME280;3205;42.666;23.264;2023-06-10T09:43:58;93951.34;;;37.01;33.39
6345;BME280;3205;42.666;23.264;2023-06-10T09:46:30;93956.22;;;37.18;33.92
6345;BME280;3205;42.666;23.264;2023-06-10T09:48:57;93948.59;;;37.89;32.65
6345;BME280;3205;42.666;23.264;2023-06-10T09:51:25;93948.69;;;38.86;31.42
6345;BME280;3205;42.666;23.264;2023-06-10T09:53:52;93950.91;;;40.00;31.09
6345;BME280;3205;42.666;23.264;2023-06-10T09:56:20;93946.63;;;38.31;30.77
6345;BME280;3205;42.666;23.264;2023-06-10T09:58:49;93946.66;;;36.85;33.78
6345;BME280;3205;42.666;23.264;2023-06-10T10:01:19;93941.34;;;36.52;35.42
6345;BME280;3205;42.666;23.264;2023-06-10T10:03:46;93937.63;;;36.90;35.80
6345;BME280;3205;42.666;23.264;2023-06-10T10:06:14;93929.44;;;37.13;37.24
6345;BME280;3205;42.666;23.264;2023-06-10T10:08:42;93932.66;;;37.17;37.70
6345;BME280;3205;42.666;23.264;2023-06-10T10:11:08;93925.63;;;36.87;36.17
6345;BME280;3205;42.666;23.264;2023-06-10T10:13:37;93918.09;;;36.47;37.48
6345;BME280;3205;42.666;23.264;2023-06-10T10:16:09;93911.53;;;35.99;40.03
6345;BME280;3205;42.666;23.264;2023-06-10T10:18:39;93916.34;;;34.73;43.15
6345;BME280;3205;42.666;23.264;2023-06-10T10:21:11;93907.66;;;32.66;46.67
6345;BME280;3205;42.666;23.264;2023-06-10T10:23:43;93911.94;;;31.33;52.23
6345;BME280;3205;42.666;23.264;2023-06-10T10:26:11;93923.03;;;29.77;62.12
6345;BME280;3205;42.666;23.264;2023-06-10T10:28:41;93912.13;;;29.77;71.92
6345;BME280;3205;42.666;23.264;2023-06-10T10:31:09;93915.03;;;29.73;71.75
6345;BME280;3205;42.666;23.264;2023-06-10T10:33:42;93907.50;;;29.68;69.50
6345;BME280;3205;42.666;23.264;2023-06-10T10:36:12;93910.97;;;29.69;68.88
6345;BME280;3205;42.666;23.264;2023-06-10T10:38:41;93913.91;;;29.33;67.92
6345;BME280;3205;42.666;23.264;2023-06-10T10:41:08;93903.13;;;29.38;67.13
6345;BME280;3205;42.666;23.264;2023-06-10T10:43:35;93897.13;;;29.58;66.77
6345;BME280;3205;42.666;23.264;2023-06-10T10:46:02;93905.25;;;29.67;69.05
6345;BME280;3205;42.666;23.264;2023-06-10T10:48:33;93900.13;;;30.07;61.83
6345;BME280;3205;42.666;23.264;2023-06-10T10:51:00;93896.66;;;30.35;61.86
6345;BME280;3205;42.666;23.264;2023-06-10T10:53:27;93886.44;;;29.92;61.70
6345;BME280;3205;42.666;23.264;2023-06-10T10:55:59;93898.56;;;29.68;60.62
6345;BME280;3205;42.666;23.264;2023-06-10T10:58:30;93889.50;;;29.06;63.54
6345;BME280;3205;42.666;23.264;2023-06-10T11:00:57;93886.19;;;28.61;66.57
6345;BME280;3205;42.666;23.264;2023-06-10T11:03:28;93879.50;;;28.80;68.28
6345;BME280;3205;42.666;23.264;2023-06-10T11:05:57;93879.38;;;29.39;67.95
6345;BME280;3205;42.666;23.264;2023-06-10T11:08:47;93878.25;;;29.92;67.47
6345;BME280;3205;42.666;23.264;2023-06-10T11:11:20;93874.84;;;29.59;66.01
6345;BME280;3205;42.666;23.264;2023-06-10T11:13:58;93869.16;;;29.72;62.92
6345;BME280;3205;42.666;23.264;2023-06-10T11:16:26;93874.66;;;29.86;61.07
6345;BME280;3205;42.666;23.264;2023-06-10T11:18:54;93864.84;;;29.42;62.88
6345;BME280;3205;42.666;23.264;2023-06-10T11:21:20;93858.59;;;28.95;69.37
6345;BME280;3205;42.666;23.264;2023-06-10T11:23:46;93859.81;;;28.35;70.01
6345;BME280;3205;42.666;23.264;2023-06-10T11:26:20;93861.34;;;28.09;78.21
6345;BME280;3205;42.666;23.264;2023-06-10T11:29:05;93850.31;;;28.30;76.30
6345;BME280;3205;42.666;23.264;2023-06-10T11:31:32;93846.25;;;28.26;75.65
6345;BME280;3205;42.666;23.264;2023-06-10T11:33:59;93844.63;;;27.92;69.84
6345;BME280;3205;42.666;23.264;2023-06-10T11:36:27;93842.34;;;28.00;70.84
6345;BME280;3205;42.666;23.264;2023-06-10T11:38:56;93835.19;;;28.29;70.94
6345;BME280;3205;42.666;23.264;2023-06-10T11:41:23;93841.56;;;28.67;71.96
6345;BME280;3205;42.666;23.264;2023-06-10T11:43:51;93846.06;;;29.12;65.06
6345;BME280;3205;42.666;23.264;2023-06-10T11:46:17;93837.56;;;29.65;66.37
6345;BME280;3205;42.666;23.264;2023-06-10T11:48:48;93838.91;;;29.84;65.91
6345;BME280;3205;42.666;23.264;2023-06-10T11:51:15;93850.94;;;29.78;65.24
6345;BME280;3205;42.666;23.264;2023-06-10T11:53:43;93840.03;;;28.75;67.26
6345;BME280;3205;42.666;23.264;2023-06-10T11:56:09;93839.59;;;28.36;67.68
6345;BME280;3205;42.666;23.264;2023-06-10T11:58:36;93832.31;;;28.33;70.77
6345;BME280;3205;42.666;23.264;2023-06-10T12:01:02;93835.56;;;28.63;74.44
6345;BME280;3205;42.666;23.264;2023-06-10T12:03:35;93830.81;;;28.32;74.03
6345;BME280;3205;42.666;23.264;2023-06-10T12:06:03;93830.22;;;28.19;74.61
6345;BME280;3205;42.666;23.264;2023-06-10T12:08:30;93835.56;;;28.63;71.56
6345;BME280;3205;42.666;23.264;2023-06-10T12:10:56;93838.94;;;28.91;68.37
6345;BME280;3205;42.666;23.264;2023-06-10T12:13:23;93829.03;;;28.29;72.35
6345;BME280;3205;42.666;23.264;2023-06-10T12:15:50;93833.63;;;28.55;69.30
6345;BME280;3205;42.666;23.264;2023-06-10T12:18:16;93835.31;;;28.94;71.61
6345;BME280;3205;42.666;23.264;2023-06-10T12:20:43;93836.13;;;29.09;67.78
6345;BME280;3205;42.666;23.264;2023-06-10T12:23:10;93834.78;;;29.04;67.55
6345;BME280;3205;42.666;23.264;2023-06-10T12:25:37;93828.31;;;28.60;70.16
6345;BME280;3205;42.666;23.264;2023-06-10T12:28:04;93829.13;;;28.43;67.35
6345;BME280;3205;42.666;23.264;2023-06-10T12:30:31;93820.44;;;28.62;68.87
6345;BME280;3205;42.666;23.264;2023-06-10T12:32:58;93823.63;;;28.61;71.27
6345;BME280;3205;42.666;23.264;2023-06-10T12:35:26;93815.38;;;29.11;80.87
6345;BME280;3205;42.666;23.264;2023-06-10T12:37:56;93813.69;;;28.90;66.52
6345;BME280;3205;42.666;23.264;2023-06-10T12:40:26;93815.47;;;28.61;64.50
6345;BME280;3205;42.666;23.264;2023-06-10T12:42:53;93810.22;;;28.49;70.46
6345;BME280;3205;42.666;23.264;2023-06-10T12:45:26;93814.66;;;28.78;66.37
6345;BME280;3205;42.666;23.264;2023-06-10T12:48:05;93805.94;;;29.21;63.47
6345;BME280;3205;42.666;23.264;2023-06-10T12:50:32;93814.88;;;29.45;57.55
6345;BME280;3205;42.666;23.264;2023-06-10T12:52:59;93817.13;;;29.46;53.76
6345;BME280;3205;42.666;23.264;2023-06-10T12:55:25;93819.38;;;29.25;53.01
6345;BME280;3205;42.666;23.264;2023-06-10T12:57:51;93819.66;;;28.80;50.68
6345;BME280;3205;42.666;23.264;2023-06-10T13:00:18;93817.75;;;28.54;52.03
6345;BME280;3205;42.666;23.264;2023-06-10T13:02:45;93811.47;;;28.39;50.64
6345;BME280;3205;42.666;23.264;2023-06-10T13:05:12;93818.34;;;28.58;52.10